Time;durP1;ratioP1;P1;durP2;ratioP2;P2;SDS_P1;SDS_P2;PMS_P1;PMS_P2;Temp;Humidity;BMP_temperature;BMP_pressure;BME280_temperature;BME280_humidity;BME280_pressure;Samples;Min_cycle;Max_cycle;Signal;HPM_P1;HPM_P2
2022/04/22 00:00:54;;;;;;;0.00;0.00;;;;;;;12.77;71.26;98885.88;4858662;29;20038;-73
2022/04/22 00:03:19;;;;;;;0.00;0.00;;;;;;;12.73;70.70;98871.47;4858600;29;20029;-73
2022/04/22 00:05:45;;;;;;;0.00;0.00;;;;;;;12.75;71.36;98871.16;4858396;29;20034;-73
2022/04/22 00:08:10;;;;;;;0.00;0.00;;;;;;;12.74;71.53;98867.69;4841986;29;20058;-73
2022/04/22 00:11:28;;;;;;;0.00;0.00;;;;;;;12.74;71.35;98874.94;4858349;29;20396;-73
2022/04/22 00:13:21;;;;;;;0.00;0.00;;;;;;;12.71;71.37;98879.00;4858205;29;20121;-73
2022/04/22 00:15:46;;;;;;;0.00;0.00;;;;;;;12.72;71.38;98883.28;4858099;29;20116;-73
2022/04/22 00:18:12;;;;;;;0.00;0.00;;;;;;;12.78;71.24;98883.97;4858769;29;20025;-73
2022/04/22 00:20:37;;;;;;;0.00;0.00;;;;;;;12.76;71.50;98892.31;4858206;29;20037;-73
2022/04/22 00:23:02;;;;;;;0.00;0.00;;;;;;;12.80;71.53;98914.00;4858509;29;20052;-73
2022/04/22 00:25:28;;;;;;;0.13;0.13;;;;;;;12.81;71.91;98905.66;4858166;29;20034;-73
2022/04/22 00:27:53;;;;;;;0.00;0.00;;;;;;;12.86;71.80;98910.13;4858682;29;20029;-74
2022/04/22 00:30:19;;;;;;;0.00;0.00;;;;;;;12.88;71.79;98912.53;4858456;29;20527;-73
2022/04/22 00:32:44;;;;;;;0.00;0.00;;;;;;;13.01;71.67;98919.84;4858483;29;20068;-73
2022/04/22 00:35:10;;;;;;;0.00;0.00;;;;;;;12.97;71.72;98910.75;4858381;29;20034;-73
2022/04/22 00:37:35;;;;;;;0.00;0.00;;;;;;;12.95;71.34;98907.56;4858190;29;20030;-73
2022/04/22 00:40:01;;;;;;;0.00;0.00;;;;;;;13.03;71.52;98914.94;4858426;29;20030;-73
2022/04/22 00:42:28;;;;;;;0.00;0.00;;;;;;;13.03;71.33;98909.59;4858074;29;20025;-73
2022/04/22 00:44:53;;;;;;;0.00;0.00;;;;;;;13.01;71.23;98914.47;4860259;29;20128;-73
2022/04/22 00:47:19;;;;;;;0.00;0.00;;;;;;;13.02;71.41;98913.34;4861647;29;20096;-73
2022/04/22 00:49:44;;;;;;;0.00;0.00;;;;;;;13.00;71.52;98917.44;4861674;29;20033;-73
2022/04/22 00:52:11;;;;;;;0.00;0.00;;;;;;;12.97;71.71;98900.84;4861182;29;20053;-73
2022/04/22 00:54:37;;;;;;;0.05;0.05;;;;;;;12.92;71.57;98898.22;4861329;29;20549;-73
2022/04/22 00:57:02;;;;;;;0.00;0.00;;;;;;;12.89;71.54;98892.66;4861534;29;20482;-73
2022/04/22 00:59:32;;;;;;;0.00;0.00;;;;;;;12.88;71.68;98883.03;4860064;29;20030;-73
2022/04/22 01:01:57;;;;;;;0.08;0.08;;;;;;;12.84;72.13;98863.22;4861397;29;20030;-73
2022/04/22 01:09:51;;;;;;;0.00;0.00;;;;;;;12.48;73.91;98829.75;4861096;29;20045;-73
2022/04/22 01:12:18;;;;;;;0.00;0.00;;;;;;;12.46;73.93;98821.19;4861242;29;20458;-73
2022/04/22 01:14:45;;;;;;;0.10;0.10;;;;;;;12.45;73.84;98828.44;4860983;29;20551;-73
2022/04/22 01:17:11;;;;;;;0.15;0.15;;;;;;;12.45;73.78;98827.63;4861167;29;20041;-73
2022/04/22 01:19:37;;;;;;;0.00;0.00;;;;;;;12.45;73.81;98847.22;4860839;29;20532;-73
2022/04/22 01:22:03;;;;;;;0.00;0.00;;;;;;;12.49;73.60;98853.59;4861071;29;20057;-73
2022/04/22 01:24:29;;;;;;;0.00;0.00;;;;;;;12.52;73.74;98846.06;4860555;29;20085;-73
2022/04/22 01:26:55;;;;;;;0.00;0.00;;;;;;;12.56;73.88;98841.69;4860738;29;20175;-73
2022/04/22 01:29:21;;;;;;;0.00;0.00;;;;;;;12.53;73.23;98843.06;4860988;29;20105;-73
2022/04/22 01:31:47;;;;;;;0.00;0.00;;;;;;;12.55;73.63;98856.19;4860687;29;20033;-74
2022/04/22 01:34:12;;;;;;;0.00;0.00;;;;;;;12.57;73.93;98854.00;4860889;29;20144;-73
2022/04/22 01:36:38;;;;;;;0.00;0.00;;;;;;;12.60;73.58;98850.75;4860616;29;20478;-73
2022/04/22 01:39:03;;;;;;;0.10;0.10;;;;;;;12.60;73.40;98846.16;4860776;29;20042;-73
2022/04/22 01:41:29;;;;;;;0.00;0.00;;;;;;;12.60;73.78;98850.75;4860237;29;20092;-73
2022/04/22 01:43:55;;;;;;;0.00;0.00;;;;;;;12.61;73.77;98857.72;4859437;29;20550;-73
2022/04/22 01:46:20;;;;;;;0.00;0.00;;;;;;;12.57;73.85;98846.78;4860881;29;20108;-73
2022/04/22 01:48:46;;;;;;;0.00;0.00;;;;;;;12.64;73.66;98851.75;4860034;29;20543;-73
2022/04/22 01:51:11;;;;;;;0.00;0.00;;;;;;;12.56;73.82;98849.72;4860483;29;20045;-73
2022/04/22 01:53:37;;;;;;;0.00;0.00;;;;;;;12.56;73.93;98857.78;4860336;29;20124;-73
2022/04/22 01:56:03;;;;;;;0.00;0.00;;;;;;;12.55;74.08;98845.44;4860348;29;20041;-73
2022/04/22 01:58:28;;;;;;;0.00;0.00;;;;;;;12.53;73.89;98847.66;4843820;29;20549;-73
2022/04/22 02:00:54;;;;;;;0.00;0.00;;;;;;;12.55;74.01;98867.72;4859961;29;20121;-73
2022/04/22 02:03:19;;;;;;;0.00;0.00;;;;;;;12.55;74.51;98880.31;4860338;29;20034;-73
2022/04/22 02:05:44;;;;;;;0.00;0.00;;;;;;;12.55;74.39;98891.88;4860396;29;20041;-73
2022/04/22 02:08:10;;;;;;;0.00;0.00;;;;;;;12.52;74.00;98900.47;4860292;29;20026;-73
2022/04/22 02:10:35;;;;;;;0.00;0.00;;;;;;;12.52;74.04;98891.66;4860061;29;20129;-74
2022/04/22 02:13:01;;;;;;;0.00;0.00;;;;;;;12.47;74.64;98885.28;4860195;29;20516;-74
2022/04/22 02:15:29;;;;;;;0.00;0.00;;;;;;;12.45;74.30;98881.28;4859948;29;20101;-74
2022/04/22 02:17:54;;;;;;;0.00;0.00;;;;;;;12.36;74.79;98883.84;4859958;29;20025;-73
2022/04/22 02:20:20;;;;;;;0.00;0.00;;;;;;;12.35;75.06;98874.19;4859978;29;20037;-73
2022/04/22 02:22:45;;;;;;;0.00;0.00;;;;;;;12.31;74.74;98860.56;4859797;29;20029;-74
2022/04/22 02:25:11;;;;;;;0.00;0.00;;;;;;;12.35;75.12;98850.06;4859958;29;20041;-73
2022/04/22 02:30:21;;;;;;;0.00;0.00;;;;;;;12.35;74.80;98849.28;4859918;29;20545;-73
2022/04/22 02:32:46;;;;;;;0.00;0.00;;;;;;;12.33;74.76;98836.16;4859578;29;20029;-73
2022/04/22 02:35:13;;;;;;;0.00;0.00;;;;;;;12.30;74.42;98823.31;4859576;29;20029;-73
2022/04/22 02:37:39;;;;;;;0.00;0.00;;;;;;;12.29;74.83;98852.03;4859552;29;20474;-73
2022/04/22 02:40:05;;;;;;;0.05;0.05;;;;;;;12.32;75.25;98866.75;4859480;29;20040;-73
2022/04/22 02:45:26;;;;;;;0.00;0.00;;;;;;;12.23;75.68;98852.41;4859350;29;20043;-73
2022/04/22 02:47:52;;;;;;;0.00;0.00;;;;;;;12.28;75.75;98844.25;4859525;29;20022;-73
2022/04/22 02:50:17;;;;;;;0.00;0.00;;;;;;;12.30;75.69;98840.22;4859570;29;20065;-74
2022/04/22 02:52:43;;;;;;;0.00;0.00;;;;;;;12.29;75.29;98832.47;4859020;29;20528;-73
2022/04/22 02:55:08;;;;;;;0.00;0.00;;;;;;;12.18;75.61;98834.50;4859687;29;20033;-73
2022/04/22 02:57:34;;;;;;;0.00;0.00;;;;;;;12.17;75.84;98817.63;4859444;29;20038;-73
2022/04/22 03:00:00;;;;;;;0.00;0.00;;;;;;;12.10;75.63;98814.50;4859408;29;20061;-73
2022/04/22 03:02:26;;;;;;;0.00;0.00;;;;;;;12.12;75.67;98822.25;4859369;29;20406;-73
2022/04/22 03:04:51;;;;;;;0.00;0.00;;;;;;;12.14;75.51;98812.06;4859045;29;20025;-74
2022/04/22 03:07:17;;;;;;;0.00;0.00;;;;;;;12.05;75.69;98811.09;4858757;29;20037;-73
2022/04/22 03:09:42;;;;;;;0.00;0.00;;;;;;;12.04;76.34;98833.66;4858807;29;20052;-73
2022/04/22 03:12:08;;;;;;;0.00;0.00;;;;;;;12.11;75.98;98836.78;4859215;29;20409;-73
2022/04/22 03:14:34;;;;;;;0.00;0.00;;;;;;;12.12;75.73;98822.25;4859177;29;20112;-73
2022/04/22 03:16:59;;;;;;;0.00;0.00;;;;;;;12.13;75.19;98823.84;4859180;29;20121;-73
2022/04/22 03:19:24;;;;;;;0.00;0.00;;;;;;;12.13;75.83;98832.72;4859130;29;20120;-73
2022/04/22 03:21:50;;;;;;;0.00;0.00;;;;;;;12.14;75.78;98828.13;4858799;29;20037;-73
2022/04/22 03:24:16;;;;;;;0.00;0.00;;;;;;;12.10;75.66;98825.25;4859036;29;20097;-73
2022/04/22 03:26:41;;;;;;;0.00;0.00;;;;;;;12.09;75.61;98828.22;4858842;29;20051;-73
2022/04/22 03:29:06;;;;;;;0.00;0.00;;;;;;;12.14;75.66;98841.53;4858942;29;20501;-73
2022/04/22 03:31:32;;;;;;;0.00;0.00;;;;;;;12.17;75.62;98835.59;4858977;29;20088;-74
2022/04/22 03:33:57;;;;;;;0.00;0.00;;;;;;;12.18;75.34;98831.81;4858705;29;20093;-73
2022/04/22 03:36:22;;;;;;;0.00;0.00;;;;;;;12.26;75.50;98831.16;4858896;29;20112;-73
2022/04/22 03:38:48;;;;;;;0.00;0.00;;;;;;;12.28;75.35;98838.91;4858662;29;20033;-73
2022/04/22 03:41:13;;;;;;;0.00;0.00;;;;;;;12.30;75.23;98834.06;4859161;29;20033;-73
2022/04/22 03:43:39;;;;;;;0.00;0.00;;;;;;;12.32;74.94;98826.53;4858567;29;20522;-73
2022/04/22 03:46:05;;;;;;;0.00;0.00;;;;;;;12.43;75.09;98833.31;4858904;29;20034;-73
2022/04/22 03:48:30;;;;;;;0.00;0.00;;;;;;;12.35;75.65;98844.69;4858832;29;20022;-73
2022/04/22 03:50:56;;;;;;;0.00;0.00;;;;;;;12.38;75.45;98854.03;4858440;29;20520;-74
2022/04/22 03:53:21;;;;;;;0.00;0.00;;;;;;;12.44;75.78;98867.09;4842257;29;20057;-74
2022/04/22 03:55:47;;;;;;;0.00;0.00;;;;;;;12.38;75.92;98860.22;4858533;29;20026;-74
2022/04/22 03:58:16;;;;;;;0.08;0.08;;;;;;;12.40;75.63;98862.59;4859018;29;20090;-73
2022/04/22 04:00:45;;;;;;;0.00;0.00;;;;;;;12.39;75.56;98853.75;4858435;29;20072;-73
2022/04/22 04:03:13;;;;;;;0.00;0.00;;;;;;;12.30;75.67;98858.19;4858658;29;20037;-74
2022/04/22 04:05:40;;;;;;;0.00;0.00;;;;;;;12.36;75.32;98853.56;4858322;29;20081;-74
2022/04/22 04:08:09;;;;;;;0.00;0.00;;;;;;;12.37;75.06;98849.78;4858673;29;20041;-73
2022/04/22 04:16:03;;;;;;;0.00;0.00;;;;;;;12.42;75.36;98874.63;4858369;29;20086;-73
2022/04/22 04:18:31;;;;;;;0.00;0.00;;;;;;;12.30;76.03;98882.31;4858178;29;20037;-75
2022/04/22 04:23:42;;;;;;;0.00;0.00;;;;;;;12.28;75.30;98858.47;4861564;29;20718;-74
2022/04/22 04:26:07;;;;;;;0.00;0.00;;;;;;;12.32;75.71;98859.47;4862089;29;20033;-73
2022/04/22 04:28:35;;;;;;;0.00;0.00;;;;;;;12.31;75.67;98859.78;4862002;29;20387;-73
2022/04/22 04:31:01;;;;;;;0.00;0.00;;;;;;;12.25;75.83;98858.28;4861732;29;20109;-73
2022/04/22 04:33:27;;;;;;;0.00;0.00;;;;;;;12.31;75.48;98849.84;4861973;29;20030;-73
2022/04/22 04:35:53;;;;;;;0.00;0.00;;;;;;;12.33;75.83;98849.56;4861660;29;20059;-73
2022/04/22 04:38:20;;;;;;;0.00;0.00;;;;;;;12.40;75.73;98865.28;4861868;29;20065;-73
2022/04/22 04:40:46;;;;;;;0.00;0.00;;;;;;;12.43;75.45;98860.13;4861600;29;20478;-73
2022/04/22 04:43:11;;;;;;;0.00;0.00;;;;;;;12.35;75.07;98862.69;4861766;29;20034;-73
2022/04/22 04:45:37;;;;;;;0.00;0.00;;;;;;;12.45;74.94;98852.59;4861985;29;20044;-73
2022/04/22 04:48:03;;;;;;;0.00;0.00;;;;;;;12.54;75.42;98871.50;4861480;29;20037;-74
2022/04/22 04:50:29;;;;;;;0.00;0.00;;;;;;;12.56;74.81;98877.38;4861667;29;20104;-73
2022/04/22 04:52:55;;;;;;;0.00;0.00;;;;;;;12.61;74.78;98871.91;4861527;29;20145;-73
2022/04/22 04:55:20;;;;;;;0.08;0.08;;;;;;;12.68;74.16;98868.06;4861526;29;20412;-73
2022/04/22 04:57:46;;;;;;;0.00;0.00;;;;;;;12.75;74.11;98871.16;4861265;29;20525;-73
2022/04/22 05:00:12;;;;;;;0.00;0.00;;;;;;;12.58;74.92;98871.69;4861481;29;20029;-73
2022/04/22 05:02:38;;;;;;;0.00;0.00;;;;;;;12.57;75.09;98865.56;4861374;29;20029;-73
2022/04/22 05:05:05;;;;;;;0.00;0.00;;;;;;;12.59;74.98;98867.94;4861088;29;20388;-73
2022/04/22 05:07:55;;;;;;;0.00;0.00;;;;;;;12.49;74.74;98867.00;4861072;29;20411;-72
2022/04/22 05:10:21;;;;;;;0.00;0.00;;;;;;;12.46;75.09;98853.38;4844761;29;20033;-73
2022/04/22 05:12:50;;;;;;;0.00;0.00;;;;;;;12.46;75.28;98845.31;4860707;29;20097;-72
2022/04/22 05:15:17;;;;;;;0.10;0.10;;;;;;;12.53;75.35;98842.28;4860802;29;20033;-72
2022/04/22 05:17:44;;;;;;;0.00;0.00;;;;;;;12.40;75.50;98833.91;4860926;29;20033;-72
2022/04/22 05:20:12;;;;;;;0.10;0.10;;;;;;;12.26;75.01;98828.47;4861252;29;20056;-73
2022/04/22 05:22:38;;;;;;;0.00;0.00;;;;;;;12.28;74.97;98830.84;4861076;29;20482;-73
2022/04/22 05:25:07;;;;;;;0.00;0.00;;;;;;;12.22;74.84;98840.88;4860845;29;20030;-73
2022/04/22 05:27:34;;;;;;;1.08;1.08;;;;;;;12.17;75.87;98830.25;4860974;29;20470;-73
2022/04/22 05:32:47;;;;;;;0.30;0.30;;;;;;;12.04;75.51;98855.09;4860265;29;20066;-73
2022/04/22 05:35:15;;;;;;;0.05;0.05;;;;;;;12.05;76.12;98856.66;4860897;29;20116;-73
2022/04/22 05:37:45;;;;;;;0.15;0.15;;;;;;;12.06;76.09;98859.09;4860610;29;20482;-73
2022/04/22 05:40:12;;;;;;;0.00;0.00;;;;;;;12.01;75.38;98851.09;4860471;29;20413;-73
2022/04/22 05:42:38;;;;;;;0.17;0.17;;;;;;;12.04;75.99;98871.19;4860800;29;20472;-73
2022/04/22 05:45:07;;;;;;;0.55;0.55;;;;;;;12.05;76.16;98870.06;4860399;29;20030;-73
2022/04/22 05:47:34;;;;;;;0.10;0.10;;;;;;;12.07;75.83;98862.53;4860426;29;20101;-73
2022/04/22 05:50:00;;;;;;;0.00;0.00;;;;;;;12.09;75.89;98871.09;4860468;29;20108;-74
2022/04/22 05:52:26;;;;;;;0.00;0.00;;;;;;;12.09;75.90;98879.16;4860628;29;20639;-73
2022/04/22 05:54:53;;;;;;;0.00;0.00;;;;;;;12.15;75.55;98880.66;4860374;29;20124;-73
2022/04/22 05:57:19;;;;;;;0.17;0.17;;;;;;;12.08;75.77;98883.69;4860422;29;20029;-73
2022/04/22 05:59:44;;;;;;;0.20;0.20;;;;;;;12.07;75.83;98889.34;4860215;29;20045;-73
2022/04/22 06:02:09;;;;;;;0.10;0.10;;;;;;;12.04;76.25;98880.00;4860155;29;20042;-73
2022/04/22 06:04:35;;;;;;;0.00;0.00;;;;;;;12.09;76.15;98893.34;4860036;29;20116;-74
2022/04/22 06:07:00;;;;;;;0.00;0.00;;;;;;;12.10;76.00;98880.75;4859463;29;20030;-72
2022/04/22 06:12:13;;;;;;;0.00;0.00;;;;;;;12.10;75.80;98886.88;4839608;29;20070;-74
2022/04/22 06:14:39;;;;;;;0.10;0.10;;;;;;;12.07;76.19;98897.41;4859401;29;20038;-74
2022/04/22 06:17:04;;;;;;;0.45;0.45;;;;;;;12.03;76.44;98891.81;4858971;29;20390;-74
2022/04/22 06:19:29;;;;;;;0.63;0.63;;;;;;;11.99;77.12;98894.28;4859573;29;20058;-74
2022/04/22 06:21:55;;;;;;;0.08;0.08;;;;;;;12.04;76.96;98895.31;4859183;29;20037;-74
2022/04/22 06:24:20;;;;;;;0.00;0.00;;;;;;;12.05;76.71;98888.84;4859458;29;20034;-74
2022/04/22 06:26:46;;;;;;;0.10;0.10;;;;;;;12.00;76.79;98895.88;4858826;29;20121;-74
2022/04/22 06:29:11;;;;;;;0.20;0.20;;;;;;;11.91;77.95;98884.16;4859054;29;20037;-74
2022/04/22 06:31:37;;;;;;;0.10;0.10;;;;;;;11.95;77.54;98898.59;4859253;29;20501;-74
2022/04/22 06:34:03;;;;;;;0.08;0.08;;;;;;;11.95;77.47;98897.78;4857758;29;20155;-74
2022/04/22 06:36:29;;;;;;;0.00;0.00;;;;;;;11.99;77.37;98896.16;4859369;29;20121;-74
2022/04/22 06:38:58;;;;;;;0.10;0.10;;;;;;;12.05;77.57;98902.25;4858894;29;20037;-74
2022/04/22 06:46:57;;;;;;;0.13;0.13;;;;;;;12.11;77.40;98901.88;4858586;29;20032;-74
2022/04/22 06:49:23;;;;;;;0.00;0.00;;;;;;;12.15;77.53;98896.75;4859209;29;20038;-74
2022/04/22 06:51:52;;;;;;;0.45;0.45;;;;;;;12.21;77.73;98905.53;4858649;29;20049;-74
2022/04/22 06:54:18;;;;;;;0.10;0.10;;;;;;;12.19;77.29;98899.66;4858956;29;20033;-74
2022/04/22 06:56:45;;;;;;;0.20;0.20;;;;;;;12.25;77.02;98911.91;4858708;29;20045;-74
2022/04/22 06:59:11;;;;;;;0.93;0.65;;;;;;;12.17;77.09;98914.13;4858642;29;20470;-74
2022/04/22 07:01:37;;;;;;;0.22;0.22;;;;;;;12.11;77.82;98895.75;4859067;29;20041;-74
2022/04/22 07:04:03;;;;;;;0.10;0.10;;;;;;;12.13;78.23;98904.28;4858491;29;20061;-74
2022/04/22 07:06:29;;;;;;;0.00;0.00;;;;;;;12.12;77.72;98898.13;4858611;29;20166;-74
2022/04/22 07:08:56;;;;;;;0.00;0.00;;;;;;;12.17;77.43;98894.59;4858895;29;20498;-74
2022/04/22 07:11:28;;;;;;;0.73;0.45;;;;;;;12.17;77.52;98890.00;4859155;29;20038;-74
2022/04/22 07:13:55;;;;;;;0.00;0.00;;;;;;;12.19;77.24;98888.94;4858840;29;20038;-73
2022/04/22 07:16:20;;;;;;;0.00;0.00;;;;;;;12.20;77.64;98887.84;4859136;29;20070;-73
2022/04/22 07:18:47;;;;;;;0.10;0.10;;;;;;;12.25;77.60;98882.41;4859057;29;20116;-73
2022/04/22 07:21:13;;;;;;;5.00;2.05;;;;;;;12.29;77.32;98894.94;4858782;29;20030;-73
2022/04/22 07:23:39;;;;;;;0.10;0.10;;;;;;;12.29;77.28;98880.72;4859006;29;20040;-73
2022/04/22 07:26:09;;;;;;;0.20;0.20;;;;;;;12.29;77.62;98880.72;4858825;29;20081;-74
2022/04/22 07:28:34;;;;;;;0.05;0.05;;;;;;;12.30;77.01;98874.28;4859261;29;20041;-74
2022/04/22 07:31:01;;;;;;;0.28;0.28;;;;;;;12.36;77.07;98865.06;4858609;29;20029;-74
2022/04/22 07:33:27;;;;;;;0.63;0.63;;;;;;;12.28;77.74;98861.16;4859186;29;20029;-73
2022/04/22 07:35:52;;;;;;;1.25;1.23;;;;;;;12.32;77.70;98846.06;4858657;29;20036;-74
2022/04/22 07:38:19;;;;;;;0.30;0.30;;;;;;;12.37;77.59;98828.34;4859163;29;20089;-73
2022/04/22 07:40:48;;;;;;;0.00;0.00;;;;;;;12.40;78.35;98817.00;4858921;29;20029;-74
2022/04/22 07:48:43;;;;;;;0.10;0.10;;;;;;;12.50;77.50;98811.50;4858881;29;20045;-74
2022/04/22 07:51:08;;;;;;;0.35;0.35;;;;;;;12.58;77.57;98840.28;4858406;29;20057;-75
2022/04/22 07:53:35;;;;;;;0.10;0.10;;;;;;;12.65;76.68;98831.88;4858928;29;20037;-73
2022/04/22 07:56:05;;;;;;;0.10;0.10;;;;;;;12.60;76.89;98821.25;4862374;29;20037;-72
2022/04/22 07:58:31;;;;;;;0.00;0.00;;;;;;;12.67;77.02;98815.47;4862528;29;20034;-74
2022/04/22 08:00:57;;;;;;;0.30;0.30;;;;;;;12.61;77.27;98806.75;4862260;29;20038;-74
2022/04/22 08:03:23;;;;;;;0.45;0.45;;;;;;;12.60;76.91;98805.16;4862473;29;20474;-73
2022/04/22 08:05:48;;;;;;;0.10;0.10;;;;;;;12.72;76.81;98797.41;4862286;29;20036;-75
2022/04/22 08:08:14;;;;;;;0.35;0.35;;;;;;;12.75;77.32;98787.97;4862212;29;20053;-72
2022/04/22 08:10:39;;;;;;;0.00;0.00;;;;;;;12.81;76.93;98776.06;4862320;29;20037;-74
2022/04/22 08:13:05;;;;;;;0.10;0.10;;;;;;;12.84;77.04;98782.72;4862318;29;20029;-74
2022/04/22 08:15:33;;;;;;;0.63;0.63;;;;;;;12.95;76.52;98790.28;4862218;29;20104;-74
2022/04/22 08:17:58;;;;;;;1.15;0.82;;;;;;;13.06;75.80;98773.97;4861954;29;20121;-74
2022/04/22 08:20:24;;;;;;;0.30;0.30;;;;;;;13.15;76.09;98782.91;4862070;29;20066;-74
2022/04/22 08:22:49;;;;;;;0.20;0.20;;;;;;;13.32;75.96;98768.06;4862361;29;20045;-74
2022/04/22 08:25:15;;;;;;;0.00;0.00;;;;;;;13.38;75.58;98756.97;4861807;29;20038;-74
2022/04/22 08:27:41;;;;;;;0.30;0.30;;;;;;;13.49;75.07;98770.97;4862009;29;20530;-72
2022/04/22 08:30:08;;;;;;;0.05;0.05;;;;;;;13.69;74.50;98777.00;4861682;29;20052;-74
2022/04/22 08:32:34;;;;;;;0.20;0.20;;;;;;;13.82;74.37;98768.09;4861901;29;20142;-74
2022/04/22 08:34:59;;;;;;;1.85;0.32;;;;;;;13.97;74.24;98776.91;4861772;29;20514;-74
2022/04/22 08:37:25;;;;;;;0.00;0.00;;;;;;;14.17;73.36;98781.81;4861648;29;20036;-74
2022/04/22 08:39:50;;;;;;;0.13;0.13;;;;;;;14.18;73.11;98775.28;4861859;29;20443;-74
2022/04/22 08:42:23;;;;;;;0.05;0.05;;;;;;;14.34;72.71;98773.03;4861500;29;20029;-74
2022/04/22 08:44:49;;;;;;;0.10;0.10;;;;;;;14.54;70.54;98779.00;4845049;29;20077;-74
2022/04/22 08:49:58;;;;;;;0.10;0.10;;;;;;;14.86;69.26;98793.28;4861163;29;20141;-74
2022/04/22 08:52:31;;;;;;;0.00;0.00;;;;;;;15.12;68.45;98785.28;4861772;29;20091;-74
2022/04/22 08:54:58;;;;;;;0.00;0.00;;;;;;;15.25;67.62;98783.56;4861039;29;20399;-75
2022/04/22 08:57:23;;;;;;;0.10;0.10;;;;;;;15.40;66.94;98787.72;4861146;29;20417;-73
2022/04/22 08:59:49;;;;;;;0.32;0.32;;;;;;;15.52;66.44;98785.19;4861418;29;20112;-73
2022/04/22 09:02:19;;;;;;;0.10;0.10;;;;;;;15.60;65.48;98769.34;4861206;29;20222;-72
2022/04/22 09:04:45;;;;;;;0.80;0.80;;;;;;;15.64;64.48;98773.03;4861361;29;20056;-74
2022/04/22 09:07:13;;;;;;;0.10;0.10;;;;;;;15.79;64.27;98763.66;4860096;29;20034;-72
2022/04/22 09:09:42;;;;;;;0.00;0.00;;;;;;;16.04;63.47;98767.50;4861225;29;20116;-74
2022/04/22 09:12:12;;;;;;;0.10;0.10;;;;;;;16.08;62.85;98765.75;4860920;29;20049;-72
2022/04/22 09:14:49;;;;;;;0.03;0.03;;;;;;;16.06;63.68;98754.47;4861044;29;20066;-74
2022/04/22 09:17:17;;;;;;;0.00;0.00;;;;;;;16.15;63.30;98752.56;4860822;29;20030;-75
2022/04/22 09:19:44;;;;;;;0.63;0.38;;;;;;;16.20;61.54;98753.50;4861059;29;20116;-74
2022/04/22 09:22:09;;;;;;;0.05;0.05;;;;;;;16.19;61.76;98763.50;4844206;29;20471;-75
2022/04/22 09:24:57;;;;;;;0.30;0.22;;;;;;;16.19;61.92;98741.91;4861055;29;20025;-75
2022/04/22 09:27:43;;;;;;;0.57;0.57;;;;;;;16.23;62.18;98742.84;4861133;29;20097;-75
2022/04/22 09:30:11;;;;;;;0.03;0.03;;;;;;;16.32;62.16;98748.25;4860802;29;20405;-74
2022/04/22 09:32:41;;;;;;;0.13;0.13;;;;;;;16.39;61.92;98745.81;4860891;29;20063;-74
2022/04/22 09:35:15;;;;;;;0.40;0.40;;;;;;;16.41;61.50;98743.59;4860892;29;20097;-73
2022/04/22 09:43:37;;;;;;;0.10;0.10;;;;;;;16.68;61.13;98717.31;4860738;29;20081;-74
2022/04/22 09:46:03;;;;;;;0.00;0.00;;;;;;;16.74;61.08;98742.22;4860182;29;20029;-74
2022/04/22 09:48:41;;;;;;;0.20;0.20;;;;;;;16.88;61.36;98732.00;4860257;29;20108;-74
2022/04/22 09:51:19;;;;;;;0.08;0.08;;;;;;;16.93;62.04;98729.16;4860183;29;20085;-74
2022/04/22 09:53:44;;;;;;;0.28;0.28;;;;;;;17.04;62.30;98734.97;4843991;29;20405;-74
2022/04/22 09:56:10;;;;;;;0.30;0.30;;;;;;;17.10;62.30;98727.44;4860295;29;20033;-74
2022/04/22 09:58:36;;;;;;;0.10;0.10;;;;;;;17.23;61.31;98720.22;4860506;29;20319;-74
2022/04/22 10:01:06;;;;;;;0.10;0.10;;;;;;;17.35;60.17;98704.09;4860167;29;20398;-74
2022/04/22 10:03:36;;;;;;;0.22;0.22;;;;;;;17.48;58.47;98701.44;4860513;29;20033;-74
2022/04/22 10:06:02;;;;;;;0.08;0.08;;;;;;;17.65;56.05;98689.69;4859996;29;20072;-74
2022/04/22 10:08:37;;;;;;;0.35;0.35;;;;;;;17.81;53.54;98690.66;4860563;29;20033;-74
2022/04/22 10:11:05;;;;;;;0.30;0.30;;;;;;;17.98;54.15;98668.09;4843466;29;20044;-74
2022/04/22 10:13:39;;;;;;;0.10;0.10;;;;;;;18.15;53.34;98663.59;4860174;29;20064;-74
2022/04/22 10:16:08;;;;;;;0.25;0.25;;;;;;;18.32;53.59;98671.53;4859564;29;20382;-74
2022/04/22 10:18:34;;;;;;;0.30;0.30;;;;;;;18.40;53.19;98676.03;4859649;29;20036;-74
2022/04/22 10:21:01;;;;;;;0.00;0.00;;;;;;;18.51;53.22;98687.22;4859970;29;20116;-75
2022/04/22 10:23:29;;;;;;;0.15;0.15;;;;;;;18.57;53.46;98671.53;4860058;29;20045;-75
2022/04/22 10:25:54;;;;;;;0.10;0.10;;;;;;;18.71;54.27;98644.09;4859953;29;20105;-75
2022/04/22 10:28:21;;;;;;;0.10;0.10;;;;;;;18.84;54.35;98658.44;4859638;29;20034;-74
2022/04/22 10:30:49;;;;;;;0.20;0.20;;;;;;;18.88;52.14;98645.78;4859841;29;20040;-76
2022/04/22 10:33:15;;;;;;;0.10;0.10;;;;;;;18.97;51.32;98646.47;4859703;29;20026;-75
2022/04/22 10:35:42;;;;;;;0.00;0.00;;;;;;;19.11;50.84;98648.81;4860112;29;20037;-75
2022/04/22 10:38:32;;;;;;;0.00;0.00;;;;;;;19.20;50.87;98654.13;4859312;29;20104;-75
2022/04/22 10:41:02;;;;;;;0.03;0.03;;;;;;;19.34;49.61;98640.94;4859795;29;20061;-73
2022/04/22 10:43:28;;;;;;;0.00;0.00;;;;;;;19.47;49.65;98651.75;4859667;29;20116;-75
2022/04/22 10:48:40;;;;;;;0.00;0.00;;;;;;;19.47;48.57;98640.91;4859635;29;20097;-75
2022/04/22 10:51:08;;;;;;;0.00;0.00;;;;;;;19.63;49.28;98638.25;4859220;29;20141;-75
2022/04/22 10:53:46;;;;;;;0.20;0.20;;;;;;;19.68;48.32;98622.50;4859612;29;20034;-74
2022/04/22 10:56:27;;;;;;;0.10;0.10;;;;;;;19.79;48.42;98622.00;4859262;29;20109;-74
2022/04/22 10:59:20;;;;;;;0.10;0.10;;;;;;;19.85;47.58;98620.66;4859361;29;20022;-75
2022/04/22 11:01:46;;;;;;;0.03;0.03;;;;;;;19.90;46.68;98630.47;4859442;29;20034;-75
2022/04/22 11:04:28;;;;;;;0.10;0.10;;;;;;;19.94;45.26;98612.34;4859025;29;20039;-75
2022/04/22 11:06:54;;;;;;;0.10;0.10;;;;;;;20.04;44.60;98622.66;4859319;29;20089;-75
2022/04/22 11:09:28;;;;;;;0.10;0.10;;;;;;;20.13;44.88;98620.56;4859288;29;20158;-75
2022/04/22 11:11:55;;;;;;;0.10;0.10;;;;;;;20.23;43.85;98621.19;4859512;29;20093;-74
2022/04/22 11:14:32;;;;;;;0.00;0.00;;;;;;;20.34;44.38;98611.38;4858922;29;20037;-75
2022/04/22 11:17:33;;;;;;;0.10;0.10;;;;;;;20.46;44.02;98605.06;4859117;29;20030;-74
2022/04/22 11:19:59;;;;;;;0.10;0.10;;;;;;;20.57;43.18;98605.31;4858978;29;20161;-73
2022/04/22 11:22:54;;;;;;;0.15;0.15;;;;;;;20.63;42.96;98606.59;4842275;29;20120;-75
2022/04/22 11:25:25;;;;;;;0.10;0.10;;;;;;;20.65;42.93;98582.56;4858762;29;20097;-73
2022/04/22 11:27:54;;;;;;;0.00;0.00;;;;;;;20.75;42.68;98579.34;4858888;29;20037;-73
2022/04/22 11:30:20;;;;;;;0.00;0.00;;;;;;;20.82;41.85;98597.72;4858338;29;20033;-73
2022/04/22 11:32:48;;;;;;;0.08;0.08;;;;;;;20.85;41.74;98571.75;4842296;29;20029;-75
2022/04/22 11:35:21;;;;;;;0.30;0.30;;;;;;;20.93;41.16;98568.03;4858689;29;20037;-75
2022/04/22 11:38:01;;;;;;;0.00;0.00;;;;;;;21.05;41.86;98556.25;4858960;29;20026;-75
2022/04/22 11:40:27;;;;;;;0.10;0.10;;;;;;;21.19;41.22;98555.72;4858555;29;20120;-75
2022/04/22 11:42:54;;;;;;;0.15;0.15;;;;;;;21.29;40.65;98541.56;4859104;29;20566;-74
2022/04/22 11:45:20;;;;;;;0.67;0.50;;;;;;;21.41;40.63;98533.22;4858565;29;20120;-73
2022/04/22 11:47:46;;;;;;;0.13;0.13;;;;;;;21.52;39.43;98527.19;4842146;29;20278;-73
2022/04/22 11:50:22;;;;;;;0.10;0.10;;;;;;;21.58;39.15;98512.97;4858253;29;20080;-74
2022/04/22 11:52:56;;;;;;;0.10;0.10;;;;;;;21.73;39.26;98515.94;4858216;29;20136;-75
2022/04/22 11:55:22;;;;;;;0.00;0.00;;;;;;;21.83;38.94;98511.81;4858387;29;20036;-74
2022/04/22 11:57:48;;;;;;;0.38;0.38;;;;;;;21.94;38.46;98514.69;4858450;29;20435;-75
2022/04/22 12:05:46;;;;;;;0.00;0.00;;;;;;;22.17;37.91;98517.38;4857908;29;20040;-73
2022/04/22 12:08:13;;;;;;;0.00;0.00;;;;;;;22.21;36.96;98523.66;4857477;29;20040;-73
2022/04/22 12:10:39;;;;;;;0.20;0.20;;;;;;;22.28;37.30;98517.53;4857733;29;20091;-73
2022/04/22 12:13:06;;;;;;;0.10;0.10;;;;;;;22.36;34.83;98508.28;4858062;29;20036;-73
2022/04/22 12:15:39;;;;;;;0.00;0.00;;;;;;;22.39;33.96;98499.44;4857923;29;20493;-74
2022/04/22 12:18:04;;;;;;;0.00;0.00;;;;;;;22.48;33.90;98501.88;4841235;29;20038;-73
2022/04/22 12:20:30;;;;;;;0.00;0.00;;;;;;;22.53;33.12;98493.38;4857873;29;20100;-74
2022/04/22 12:22:56;;;;;;;0.13;0.13;;;;;;;22.55;32.10;98461.09;4857902;29;20533;-74
2022/04/22 12:25:23;;;;;;;0.50;0.50;;;;;;;22.67;32.61;98471.75;4857635;29;20026;-74
2022/04/22 12:28:09;;;;;;;0.00;0.00;;;;;;;22.76;31.50;98476.91;4857824;29;20483;-74